Birmingham, AL (35291)

1:51 AM CST on December 29, 2014 (GMT -0600)
Central Business District | Change Station
CLOSE
Current Station
Personal Weather Station
Location: Birmingham, AL
Elevation: 636 ft
Nearby Weather Stations

Elev 636 ft 33.52 °N, 86.81 °W | Updated 12 seconds ago

Rain
Rain
51.7 °F
Feels Like 51.7 °F
N
0.4
Wind Variable Wind from SW
Gusts 0.4 mph

Today
High -- | Low -- °F
--% Chance of Precip.
Yesterday
High -- | Low -- °F
Precip. -- in
6:50 AM 4:48 PM
First Quarter, 56% visible
Pressure 30.11 in
Visibility 10.0 miles
Clouds Scattered Clouds 400 ft
Scattered Clouds 1800 ft
Overcast 9500 ft
Dew Point 49 °F
Humidity 90%
Rainfall 0.00 in
Snow Depth Not available.
UV 0 out of 12
Pollen .40 out of 12
Air Quality Not available.
Flu Activity Not available.
SPECI KBHM 290743Z 00000KT 10SM -RA SCT004 SCT018 OVC095 10/09 A3011 RMK AO2 P0003 T01000089

More Conditions Fewer Conditions

Pressure 30.11 in
Visibility 10.0 miles
Clouds Scattered Clouds 400 ft
Scattered Clouds 1800 ft
Overcast 9500 ft
Dew Point 49 °F
Humidity 90%
Rainfall 0.00 in
Snow Depth Not available.
UV 0 out of 12
Pollen .40 out of 12
Air Quality Not available.
Flu Activity Not available.
SPECI KBHM 290743Z 00000KT 10SM -RA SCT004 SCT018 OVC095 10/09 A3011 RMK AO2 P0003 T01000089

More Conditions Fewer Conditions

10-Day Weather Forecast

Almanac

Astronomy

Dec. 29, 2014 Rise Set
Actual Time
Civil Twilight
Nautical Twilight
Astronomical Twilight
Moon
Length of Visible Light
Length of Day
Tomorrow will be .
, % of the Moon is Illuminated

Today's Extremes

State Highs State Lows

Community

WunderPhotos

Upload Photos

1,781,547 photos uploaded!

WunderBlogs® & News

Nearby

Air Quality

  Air Quality AQ Index Pollutant
Not available.

Snow Depth

Station Depth Elevation

Earthquake Activity

City Distance Mag. Time & Date
Minimum magnitude displayed is 2.5.

Coastal Water Temperatures

Place Temperature

Nearby Weather Stations